createdAt,value
2019-04-04T00:00:33.112Z,91.83
2019-04-04T00:02:58.916Z,91.74
2019-04-04T00:05:26.138Z,91.59
2019-04-04T00:07:52.080Z,91.67
2019-04-04T00:10:17.879Z,91.39
2019-04-04T00:12:43.660Z,91.43
2019-04-04T00:15:09.556Z,91.55
2019-04-04T00:17:35.332Z,91.30
2019-04-04T00:20:01.964Z,90.97
2019-04-04T00:22:27.720Z,90.86
2019-04-04T00:24:53.563Z,90.65
2019-04-04T00:27:19.289Z,90.47
2019-04-04T00:29:47.695Z,92.43
2019-04-04T00:32:12.784Z,92.74
2019-04-04T00:34:38.582Z,91.29
2019-04-04T00:37:04.864Z,90.36
2019-04-04T00:39:31.099Z,90.36
2019-04-04T00:41:56.878Z,90.76
2019-04-04T00:44:23.135Z,90.01
2019-04-04T00:46:49.487Z,89.71
2019-04-04T00:49:15.279Z,89.83
2019-04-04T00:51:41.074Z,90.54
2019-04-04T00:54:06.863Z,90.13
2019-04-04T00:56:32.666Z,90.75
2019-04-04T00:58:58.452Z,90.63
2019-04-04T01:01:26.887Z,90.60
2019-04-04T01:03:51.938Z,90.83
2019-04-04T01:06:17.721Z,90.83
2019-04-04T01:08:43.508Z,91.25
2019-04-04T01:11:09.304Z,91.45
2019-04-04T01:13:35.091Z,91.61
2019-04-04T01:16:02.504Z,91.89
2019-04-04T01:18:28.603Z,91.78
2019-04-04T01:20:54.398Z,91.78
2019-04-04T01:23:20.196Z,91.91
2019-04-04T01:25:45.997Z,92.41
2019-04-04T01:28:11.774Z,92.81
2019-04-04T01:30:37.555Z,92.90
2019-04-04T01:33:03.832Z,93.29
2019-04-04T01:35:29.767Z,93.34
2019-04-04T01:37:57.856Z,93.34
2019-04-04T01:40:23.265Z,93.47
2019-04-04T01:42:49.053Z,93.31
2019-04-04T01:45:14.838Z,93.74
2019-04-04T01:47:40.627Z,93.94
2019-04-04T01:50:06.532Z,94.05
2019-04-04T01:52:32.427Z,94.36
2019-04-04T01:54:58.211Z,94.44
2019-04-04T01:57:23.996Z,94.61
2019-04-04T01:59:49.770Z,94.40
2019-04-04T02:02:17.785Z,94.54
2019-04-04T02:04:43.252Z,94.52
2019-04-04T02:07:09.038Z,94.75
2019-04-04T02:09:34.810Z,95.03
2019-04-04T02:12:00.633Z,95.25
2019-04-04T02:14:26.411Z,95.38
2019-04-04T02:16:52.228Z,95.56
2019-04-04T02:19:18.324Z,95.55
2019-04-04T02:21:44.749Z,95.35
2019-04-04T02:24:11.113Z,95.35
2019-04-04T02:26:37.302Z,95.31
2019-04-04T02:29:03.426Z,95.38
2019-04-04T02:31:31.116Z,95.38
2019-04-04T02:33:56.925Z,95.08
2019-04-04T02:36:22.695Z,95.08
2019-04-04T02:39:07.886Z,95.05
2019-04-04T02:41:33.667Z,95.07
2019-04-04T02:44:00.694Z,94.89
2019-04-04T02:46:26.567Z,94.85
2019-04-04T02:48:55.850Z,94.72
2019-04-04T02:51:21.072Z,94.84
2019-04-04T02:53:46.877Z,94.83
2019-04-04T02:56:12.650Z,94.92
2019-04-04T02:58:38.467Z,94.99
2019-04-04T03:01:04.233Z,94.94
2019-04-04T03:03:30.129Z,94.61
2019-04-04T03:05:55.909Z,94.51
2019-04-04T03:08:21.728Z,94.48
2019-04-04T03:10:49.214Z,94.30
2019-04-04T03:13:15.176Z,94.50
2019-04-04T03:15:41.828Z,94.51
2019-04-04T03:18:08.647Z,94.16
2019-04-04T03:20:34.431Z,94.16
2019-04-04T03:23:01.362Z,94.15
2019-04-04T03:25:27.321Z,94.27
2019-04-04T03:27:53.121Z,94.27
2019-04-04T03:30:18.917Z,94.73
2019-04-04T03:32:51.808Z,94.43
2019-04-04T03:35:12.420Z,94.55
2019-04-04T03:37:41.021Z,94.55
2019-04-04T03:40:06.107Z,94.60
2019-04-04T03:42:31.897Z,94.48
2019-04-04T03:44:57.723Z,94.34
2019-04-04T03:47:23.537Z,94.37
2019-04-04T03:49:49.335Z,94.39
2019-04-04T03:52:15.110Z,94.07
2019-04-04T03:54:40.899Z,93.62
2019-04-04T03:57:10.938Z,93.54
2019-04-04T03:59:34.377Z,93.46
2019-04-04T04:02:00.171Z,93.16
2019-04-04T04:04:28.255Z,93.09
2019-04-04T04:06:53.692Z,93.30
2019-04-04T04:09:19.481Z,94.03
2019-04-04T04:11:45.305Z,94.23
2019-04-04T04:14:11.057Z,94.54
2019-04-04T04:16:36.847Z,94.22
2019-04-04T04:19:02.635Z,94.17
2019-04-04T04:21:28.425Z,94.11
2019-04-04T04:23:57.015Z,93.98
2019-04-04T04:26:21.898Z,94.20
2019-04-04T04:28:52.190Z,94.11
2019-04-04T04:31:15.625Z,93.98
2019-04-04T04:33:41.562Z,94.27
2019-04-04T04:36:09.779Z,94.27
2019-04-04T04:38:35.052Z,94.21
2019-04-04T04:41:00.846Z,94.28
2019-04-04T04:43:26.644Z,94.34
2019-04-04T04:45:52.429Z,93.88
2019-04-04T04:48:18.342Z,94.05
2019-04-04T04:50:44.235Z,93.79
2019-04-04T04:53:10.035Z,93.32
2019-04-04T04:55:36.127Z,93.32
2019-04-04T04:58:01.899Z,93.79
2019-04-04T05:00:28.193Z,93.40
2019-04-04T05:02:53.992Z,94.51
2019-04-04T05:05:19.789Z,93.79
2019-04-04T05:07:45.565Z,93.29
2019-04-04T05:10:14.653Z,93.32
2019-04-04T05:12:40.155Z,93.16
2019-04-04T05:15:06.066Z,93.62
2019-04-04T05:17:31.856Z,93.40
2019-04-04T05:19:57.649Z,94.33
2019-04-04T05:22:23.426Z,94.70
2019-04-04T05:25:06.786Z,94.36
2019-04-04T05:27:16.902Z,94.40
2019-04-04T05:29:44.635Z,94.12
2019-04-04T05:32:10.367Z,94.08
2019-04-04T05:34:36.172Z,94.35
2019-04-04T05:37:02.023Z,94.18
2019-04-04T05:39:28.209Z,94.41
2019-04-04T05:41:54.016Z,94.72
2019-04-04T05:44:19.781Z,94.78
2019-04-04T05:46:46.179Z,94.58
2019-04-04T05:49:11.995Z,94.58
2019-04-04T05:51:37.792Z,94.79
2019-04-04T05:54:06.987Z,94.62
2019-04-04T05:56:32.171Z,94.77
2019-04-04T05:58:59.347Z,94.38
2019-04-04T06:01:27.400Z,94.66
2019-04-04T06:03:54.628Z,94.80
2019-04-04T06:06:22.017Z,94.29
2019-04-04T06:08:47.907Z,94.29
2019-04-04T06:11:13.703Z,94.50
2019-04-04T06:13:39.492Z,94.67
2019-04-04T06:16:05.272Z,94.73
2019-04-04T06:18:31.067Z,94.57
2019-04-04T06:20:56.845Z,94.73
2019-04-04T06:23:23.083Z,94.49
2019-04-04T06:25:50.342Z,94.58
2019-04-04T06:28:16.127Z,94.20
2019-04-04T06:30:43.332Z,94.24
2019-04-04T06:33:09.599Z,94.52
2019-04-04T06:35:35.376Z,94.21
2019-04-04T06:38:01.231Z,94.47
2019-04-04T06:40:28.141Z,94.66
2019-04-04T06:42:54.681Z,94.83
2019-04-04T06:45:20.467Z,94.88
2019-04-04T06:47:46.248Z,94.50
2019-04-04T06:50:12.159Z,94.93
2019-04-04T06:52:37.955Z,94.63
2019-04-04T06:55:04.735Z,95.12
2019-04-04T06:57:30.516Z,94.90
2019-04-04T06:59:56.339Z,95.20
2019-04-04T07:02:23.985Z,94.96
2019-04-04T07:04:49.828Z,94.91
2019-04-04T07:07:15.605Z,94.91
2019-04-04T07:09:41.425Z,95.04
2019-04-04T07:12:07.347Z,94.84
2019-04-04T07:14:45.113Z,94.77
2019-04-04T07:17:00.922Z,94.78
2019-04-04T07:19:26.839Z,94.48
2019-04-04T07:21:52.618Z,94.48
2019-04-04T07:24:18.492Z,95.04
2019-04-04T07:26:45.532Z,93.94
2019-04-04T07:29:11.868Z,94.06
2019-04-04T07:31:38.392Z,94.06
2019-04-04T07:34:04.347Z,92.29
2019-04-04T07:36:30.124Z,92.29
2019-04-04T07:38:58.190Z,92.55
2019-04-04T07:41:24.115Z,92.71
2019-04-04T07:43:51.587Z,91.89
2019-04-04T07:46:17.601Z,91.93
2019-04-04T07:48:43.377Z,91.52
2019-04-04T07:51:09.177Z,91.24
2019-04-04T07:53:36.428Z,90.41
2019-04-04T07:56:02.702Z,90.42
2019-04-04T07:58:28.478Z,88.97
2019-04-04T08:00:54.305Z,89.72
2019-04-04T08:03:20.081Z,89.29
2019-04-04T08:05:45.879Z,89.43
2019-04-04T08:08:11.666Z,89.00
2019-04-04T08:10:37.452Z,88.75
2019-04-04T08:13:03.256Z,88.29
2019-04-04T08:15:29.155Z,87.64
2019-04-04T08:17:54.940Z,88.02
2019-04-04T08:20:20.748Z,87.24
2019-04-04T08:22:46.544Z,86.95
2019-04-04T08:25:12.353Z,86.58
2019-04-04T08:27:38.156Z,87.27
2019-04-04T08:30:05.534Z,87.31
2019-04-04T08:32:31.359Z,87.08
2019-04-04T08:34:57.127Z,86.44
2019-04-04T08:37:22.915Z,85.14
2019-04-04T08:39:48.712Z,84.35
2019-04-04T08:42:14.534Z,83.85
2019-04-04T08:44:40.536Z,82.63
2019-04-04T08:47:06.322Z,81.32
2019-04-04T08:49:32.107Z,82.00
2019-04-04T08:51:57.904Z,83.32
2019-04-04T08:54:23.697Z,81.50
2019-04-04T08:56:49.488Z,81.50
2019-04-04T08:59:15.266Z,81.93
2019-04-04T09:01:41.059Z,80.80
2019-04-04T09:04:06.862Z,82.23
2019-04-04T09:06:32.697Z,81.87
2019-04-04T09:08:58.563Z,79.93
2019-04-04T09:11:24.341Z,79.78
2019-04-04T09:13:50.133Z,80.60
2019-04-04T09:16:15.907Z,79.65
2019-04-04T09:18:41.694Z,79.49
2019-04-04T09:21:07.474Z,79.73
2019-04-04T09:23:33.271Z,79.46
2019-04-04T09:26:05.389Z,79.60
2019-04-04T09:28:26.880Z,77.49
2019-04-04T09:30:52.635Z,77.49
2019-04-04T09:33:20.931Z,77.01
2019-04-04T09:35:46.161Z,75.75
2019-04-04T09:38:11.973Z,74.79
2019-04-04T09:40:37.772Z,75.04
2019-04-04T09:43:03.566Z,74.61
2019-04-04T09:45:29.348Z,75.15
2019-04-04T09:47:55.136Z,76.21
2019-04-04T09:50:20.944Z,77.62
2019-04-04T09:52:46.728Z,77.50
2019-04-04T09:55:12.532Z,77.25
2019-04-04T09:57:38.439Z,77.23
2019-04-04T10:00:08.029Z,76.83
2019-04-04T10:02:33.798Z,75.61
2019-04-04T10:04:59.617Z,76.80
2019-04-04T10:07:26.805Z,75.91
2019-04-04T10:09:52.703Z,74.60
2019-04-04T10:12:18.599Z,74.76
2019-04-04T10:14:44.402Z,75.20
2019-04-04T10:17:10.181Z,76.00
2019-04-04T10:19:35.988Z,76.81
2019-04-04T10:22:01.775Z,78.66
2019-04-04T10:24:27.568Z,78.79
2019-04-04T10:26:53.352Z,78.86
2019-04-04T10:29:19.141Z,78.71
2019-04-04T10:31:44.928Z,78.24
2019-04-04T10:34:10.717Z,78.91
2019-04-04T10:36:36.515Z,79.13
2019-04-04T10:39:06.108Z,79.51
2019-04-04T10:41:32.001Z,79.96
2019-04-04T10:43:57.783Z,80.33
2019-04-04T10:46:23.583Z,79.65
2019-04-04T10:48:49.530Z,80.00
2019-04-04T10:51:15.592Z,79.83
2019-04-04T10:53:41.384Z,80.04
2019-04-04T10:56:07.398Z,79.84
2019-04-04T10:58:33.388Z,79.42
2019-04-04T11:01:02.014Z,79.28
2019-04-04T11:03:27.923Z,79.02
2019-04-04T11:05:54.065Z,78.64
2019-04-04T11:08:20.099Z,78.43
2019-04-04T11:10:45.947Z,78.26
2019-04-04T11:13:11.931Z,78.50
2019-04-04T11:15:37.826Z,77.97
2019-04-04T11:18:03.980Z,77.86
2019-04-04T11:20:29.983Z,77.48
2019-04-04T11:22:57.889Z,77.46
2019-04-04T11:25:26.408Z,76.26
2019-04-04T11:27:52.466Z,76.21
2019-04-04T11:30:18.993Z,76.77
2019-04-04T11:32:45.003Z,75.78
2019-04-04T11:35:11.153Z,76.27
2019-04-04T11:37:37.070Z,75.79
2019-04-04T11:40:03.636Z,75.60
2019-04-04T11:42:29.597Z,75.72
2019-04-04T11:44:55.368Z,74.83
2019-04-04T11:47:21.315Z,73.79
2019-04-04T11:49:47.690Z,74.06
2019-04-04T11:52:13.802Z,72.51
2019-04-04T11:54:50.596Z,71.77
2019-04-04T11:57:16.995Z,71.55
2019-04-04T11:59:43.255Z,71.34
2019-04-04T12:02:09.147Z,71.99
2019-04-04T12:04:35.284Z,72.50
2019-04-04T12:07:01.265Z,72.78
2019-04-04T12:09:27.353Z,73.50
2019-04-04T12:11:53.344Z,74.02
2019-04-04T12:14:19.470Z,74.20
2019-04-04T12:16:45.642Z,74.17
2019-04-04T12:19:11.717Z,74.82
2019-04-04T12:21:37.669Z,75.04
2019-04-04T12:24:03.635Z,74.98
2019-04-04T12:26:29.817Z,75.30
2019-04-04T12:28:56.674Z,75.06
2019-04-04T12:31:22.655Z,75.04
2019-04-04T12:33:49.030Z,73.85
2019-04-04T12:36:24.523Z,72.49
2019-04-04T12:38:42.777Z,70.35
2019-04-04T12:41:08.772Z,69.77
2019-04-04T12:43:34.766Z,68.48
2019-04-04T12:46:00.811Z,67.81
2019-04-04T12:48:26.785Z,64.94
2019-04-04T12:50:52.948Z,66.32
2019-04-04T12:53:21.327Z,67.03
2019-04-04T12:55:47.726Z,67.16
2019-04-04T12:58:14.000Z,68.62
2019-04-04T13:00:40.067Z,68.41
2019-04-04T13:03:06.044Z,69.96
2019-04-04T13:05:32.193Z,69.76
2019-04-04T13:07:58.373Z,70.76
2019-04-04T13:10:32.824Z,71.18
2019-04-04T13:12:52.288Z,69.50
2019-04-04T13:15:21.391Z,69.86
2019-04-04T13:17:47.356Z,69.09
2019-04-04T13:20:13.762Z,68.57
2019-04-04T13:22:39.954Z,68.02
2019-04-04T13:25:07.653Z,67.18
2019-04-04T13:27:33.565Z,68.35
2019-04-04T13:29:59.357Z,66.81
2019-04-04T13:32:25.550Z,66.59
2019-04-04T13:34:59.124Z,66.35
2019-04-04T13:37:19.633Z,66.45
2019-04-04T13:39:45.438Z,66.06
2019-04-04T13:42:11.592Z,66.56
2019-04-04T13:44:37.532Z,67.79
2019-04-04T13:47:03.895Z,67.56
2019-04-04T13:49:29.735Z,69.11
2019-04-04T13:51:55.576Z,69.51
2019-04-04T13:54:21.381Z,69.00
2019-04-04T13:56:47.605Z,67.18
2019-04-04T13:59:13.699Z,67.56
2019-04-04T14:01:42.005Z,64.77
2019-04-04T14:04:07.190Z,65.68
2019-04-04T14:06:33.016Z,66.17
2019-04-04T14:08:58.794Z,64.93
2019-04-04T14:11:24.607Z,65.60
2019-04-04T14:13:50.415Z,65.49
2019-04-04T14:16:16.320Z,67.69
2019-04-04T14:18:44.645Z,65.94
2019-04-04T14:21:10.746Z,65.10
2019-04-04T14:23:36.702Z,64.74
2019-04-04T14:26:02.776Z,66.94
2019-04-04T14:28:29.327Z,66.30
2019-04-04T14:30:55.267Z,66.99
2019-04-04T14:33:21.467Z,66.34
2019-04-04T14:35:47.472Z,66.50
2019-04-04T14:38:13.498Z,67.53
2019-04-04T14:40:39.516Z,67.48
2019-04-04T14:43:05.678Z,67.63
2019-04-04T14:45:31.902Z,68.46
2019-04-04T14:47:57.950Z,69.00
2019-04-04T14:50:23.851Z,68.29
2019-04-04T14:52:51.774Z,67.51
2019-04-04T14:55:17.968Z,68.10
2019-04-04T14:57:43.941Z,69.08
2019-04-04T15:00:11.963Z,68.87
2019-04-04T15:02:37.807Z,69.28
2019-04-04T15:05:04.648Z,70.00
2019-04-04T15:07:30.717Z,69.42
2019-04-04T15:09:56.634Z,69.41
2019-04-04T15:12:22.851Z,69.70
2019-04-04T15:14:48.907Z,69.78
2019-04-04T15:17:14.735Z,69.36
2019-04-04T15:19:40.557Z,69.23
2019-04-04T15:22:06.392Z,69.18
2019-04-04T15:24:32.270Z,69.81
2019-04-04T15:26:58.063Z,69.84
2019-04-04T15:29:23.917Z,70.47
2019-04-04T15:31:49.719Z,69.53
2019-04-04T15:34:15.532Z,69.13
2019-04-04T15:36:41.339Z,69.73
2019-04-04T15:39:07.246Z,69.78
2019-04-04T15:41:37.180Z,69.62
2019-04-04T15:44:01.363Z,69.52
2019-04-04T15:46:27.169Z,69.68
2019-04-04T15:48:52.972Z,70.38
2019-04-04T15:51:18.806Z,70.56
2019-04-04T15:53:44.617Z,71.12
2019-04-04T15:56:10.439Z,71.47
2019-04-04T15:58:36.348Z,71.47
2019-04-04T16:01:02.219Z,70.99
2019-04-04T16:03:28.155Z,70.66
2019-04-04T16:05:53.955Z,70.94
2019-04-04T16:08:19.790Z,71.13
2019-04-04T16:10:45.619Z,71.49
2019-04-04T16:13:11.405Z,71.44
2019-04-04T16:15:37.236Z,70.89
2019-04-04T16:18:03.786Z,70.44
2019-04-04T16:20:29.912Z,70.69
2019-04-04T16:22:56.079Z,70.81
2019-04-04T16:25:22.164Z,71.12
2019-04-04T16:27:48.243Z,71.29
2019-04-04T16:30:14.611Z,71.58
2019-04-04T16:32:40.913Z,71.87
2019-04-04T16:35:07.004Z,72.45
2019-04-04T16:37:33.158Z,71.94
2019-04-04T16:40:08.825Z,72.42
2019-04-04T16:42:27.320Z,72.43
2019-04-04T16:44:53.458Z,73.06
2019-04-04T16:47:19.545Z,73.47
2019-04-04T16:49:45.593Z,73.79
2019-04-04T16:52:11.651Z,74.38
2019-04-04T16:54:37.658Z,74.65
2019-04-04T16:57:04.819Z,75.05
2019-04-04T16:59:30.835Z,75.27
2019-04-04T17:01:56.769Z,75.36
2019-04-04T17:04:22.707Z,75.74
2019-04-04T17:06:48.790Z,75.96
2019-04-04T17:09:14.728Z,76.04
2019-04-04T17:11:40.769Z,76.20
2019-04-04T17:14:06.751Z,76.77
2019-04-04T17:16:32.824Z,77.16
2019-04-04T17:18:58.814Z,77.31
2019-04-04T17:21:24.833Z,77.11
2019-04-04T17:23:50.830Z,78.12
2019-04-04T17:26:16.869Z,78.02
2019-04-04T17:28:43.387Z,78.22
2019-04-04T17:31:10.214Z,78.45
2019-04-04T17:33:36.877Z,78.93
2019-04-04T17:36:03.045Z,79.36
2019-04-04T17:38:29.533Z,79.26
2019-04-04T17:40:55.610Z,79.66
2019-04-04T17:43:22.049Z,79.66
2019-04-04T17:45:48.407Z,81.35
2019-04-04T17:48:14.568Z,83.02
2019-04-04T17:50:40.567Z,83.02
2019-04-04T17:53:06.612Z,83.18
2019-04-04T17:55:32.543Z,83.78
2019-04-04T17:57:58.888Z,84.14
2019-04-04T18:00:26.100Z,84.20
2019-04-04T18:02:52.285Z,84.45
2019-04-04T18:05:18.581Z,85.07
2019-04-04T18:07:44.606Z,85.20
2019-04-04T18:10:10.684Z,85.82
2019-04-04T18:12:40.598Z,86.49
2019-04-04T18:15:05.961Z,86.57
2019-04-04T18:17:32.105Z,86.57
2019-04-04T18:19:58.276Z,86.65
2019-04-04T18:22:24.416Z,86.65
2019-04-04T18:24:50.334Z,87.35
2019-04-04T18:27:16.370Z,87.45
2019-04-04T18:29:42.261Z,88.01
2019-04-04T18:32:09.526Z,88.16
2019-04-04T18:34:35.920Z,88.35
2019-04-04T18:37:02.383Z,88.35
2019-04-04T18:39:28.363Z,88.30
2019-04-04T18:41:54.563Z,88.48
2019-04-04T18:44:20.557Z,88.91
2019-04-04T18:46:46.659Z,88.91
2019-04-04T18:49:12.731Z,88.92
2019-04-04T18:51:39.108Z,89.18
2019-04-04T18:54:05.244Z,89.18
2019-04-04T18:56:31.427Z,89.50
2019-04-04T18:58:57.489Z,89.50
2019-04-04T19:01:23.601Z,89.64
2019-04-04T19:03:49.621Z,89.91
2019-04-04T19:06:15.629Z,89.91
2019-04-04T19:08:41.952Z,90.06
2019-04-04T19:11:08.035Z,90.39
2019-04-04T19:13:43.707Z,90.39
2019-04-04T19:16:02.149Z,91.06
2019-04-04T19:18:28.488Z,91.05
2019-04-04T19:20:54.898Z,91.19
2019-04-04T19:23:21.223Z,91.19
2019-04-04T19:25:47.628Z,91.51
2019-04-04T19:28:14.097Z,91.36
2019-04-04T19:30:40.495Z,91.66
2019-04-04T19:33:06.452Z,91.70
2019-04-04T19:35:32.468Z,91.70
2019-04-04T19:38:00.380Z,92.10
2019-04-04T19:40:26.920Z,92.10
2019-04-04T19:42:52.790Z,92.48
2019-04-04T19:45:21.219Z,92.50
2019-04-04T19:47:46.559Z,92.46
2019-04-04T19:50:12.575Z,92.39
2019-04-04T19:52:38.503Z,92.91
2019-04-04T19:55:05.398Z,92.91
2019-04-04T19:57:31.207Z,92.59
2019-04-04T19:59:56.996Z,92.71
2019-04-04T20:02:23.109Z,92.91
2019-04-04T20:04:48.925Z,93.41
2019-04-04T20:07:14.823Z,93.41
2019-04-04T20:09:40.837Z,92.98
2019-04-04T20:12:06.622Z,93.36
2019-04-04T20:14:32.415Z,93.18
2019-04-04T20:16:58.222Z,93.44
2019-04-04T20:19:24.013Z,93.52
2019-04-04T20:21:49.795Z,93.19
2019-04-04T20:24:15.578Z,93.02
2019-04-04T20:26:41.374Z,93.48
2019-04-04T20:29:07.154Z,92.93
2019-04-04T20:31:32.975Z,92.92
2019-04-04T20:34:01.991Z,93.47
2019-04-04T20:36:26.495Z,93.57
2019-04-04T20:38:52.759Z,93.53
2019-04-04T20:41:18.565Z,93.77
2019-04-04T20:43:44.344Z,93.77
2019-04-04T20:46:10.135Z,93.62
2019-04-04T20:48:35.914Z,93.72
2019-04-04T20:51:01.699Z,93.75
2019-04-04T20:53:27.510Z,94.04
2019-04-04T20:55:53.334Z,94.32
2019-04-04T20:58:19.124Z,93.92
2019-04-04T21:00:44.911Z,93.64
2019-04-04T21:03:10.726Z,93.85
2019-04-04T21:05:36.538Z,94.06
2019-04-04T21:08:02.311Z,93.78
2019-04-04T21:10:28.145Z,93.76
2019-04-04T21:12:53.940Z,93.48
2019-04-04T21:15:19.739Z,93.61
2019-04-04T21:17:45.529Z,93.62
2019-04-04T21:20:11.417Z,93.75
2019-04-04T21:22:37.240Z,94.38
2019-04-04T21:25:04.622Z,93.59
2019-04-04T21:27:30.444Z,93.77
2019-04-04T21:29:56.214Z,93.87
2019-04-04T21:32:22.009Z,93.54
2019-04-04T21:34:47.827Z,93.83
2019-04-04T21:37:13.599Z,93.62
2019-04-04T21:39:39.409Z,93.65
2019-04-04T21:42:05.227Z,93.65
2019-04-04T21:44:31.073Z,93.53
2019-04-04T21:46:56.943Z,93.30
2019-04-04T21:49:22.702Z,93.51
2019-04-04T21:51:48.508Z,93.26
2019-04-04T21:54:14.308Z,92.79
2019-04-04T21:56:40.098Z,94.11
2019-04-04T21:59:05.874Z,94.12
2019-04-04T22:01:31.796Z,93.85
2019-04-04T22:03:57.871Z,93.74
2019-04-04T22:06:23.683Z,93.79
2019-04-04T22:08:49.466Z,93.93
2019-04-04T22:11:15.240Z,93.78
2019-04-04T22:13:41.059Z,93.77
2019-04-04T22:16:07.188Z,93.64
2019-04-04T22:18:33.569Z,93.39
2019-04-04T22:20:59.381Z,93.47
2019-04-04T22:23:25.171Z,93.88
2019-04-04T22:25:50.953Z,93.76
2019-04-04T22:28:16.752Z,93.51
2019-04-04T22:30:42.928Z,93.31
2019-04-04T22:33:08.743Z,93.19
2019-04-04T22:35:34.520Z,93.56
2019-04-04T22:38:00.309Z,93.53
2019-04-04T22:40:26.096Z,93.49
2019-04-04T22:42:51.884Z,93.21
2019-04-04T22:45:17.735Z,93.12
2019-04-04T22:47:43.554Z,92.87
2019-04-04T22:50:09.333Z,92.95
2019-04-04T22:52:35.140Z,92.93
2019-04-04T22:55:01.501Z,92.44
2019-04-04T22:57:27.672Z,91.90
2019-04-04T22:59:53.460Z,92.04
2019-04-04T23:02:19.263Z,92.49
2019-04-04T23:04:45.053Z,92.59
2019-04-04T23:07:10.841Z,92.60
2019-04-04T23:09:36.634Z,92.60
2019-04-04T23:12:02.412Z,92.66
2019-04-04T23:14:28.465Z,93.64
2019-04-04T23:16:54.274Z,94.16
2019-04-04T23:19:20.064Z,93.83
2019-04-04T23:21:45.848Z,93.81
2019-04-04T23:24:11.651Z,93.63
2019-04-04T23:26:37.450Z,93.92
2019-04-04T23:29:03.240Z,93.67
2019-04-04T23:31:29.019Z,93.16
2019-04-04T23:33:55.163Z,93.12
2019-04-04T23:36:20.980Z,93.39
2019-04-04T23:38:46.989Z,94.30
2019-04-04T23:41:12.902Z,94.21
2019-04-04T23:43:38.943Z,94.36
2019-04-04T23:46:04.972Z,94.04
2019-04-04T23:48:31.008Z,94.14
2019-04-04T23:50:57.078Z,94.07
2019-04-04T23:53:22.872Z,94.73
2019-04-04T23:55:48.662Z,94.44
2019-04-04T23:58:14.441Z,94.65
